Western Trident — 3FE09 — position and weather

sailwx.info

Track history (hours):
 
Tides and Currents Weather Stations Pressure Air Temp Water Temp Dewpoint Dewpoint Depression Visibility Wind Speed Wind Dir Waves Ship Positions

Western Trident

Last reported at 2015-Jun-11 04:09 UTC. Time now 2015-Jul-02 18:17 UTC.
Position N 47°16' W 051°24'.
Warning: this ship's position is 21 days out of date.

Length 95 m; draft 7.5 m.

Type: Other ship. MMSI: 357269000.

Date/timePositionNaut miles runAvg speedWind from/ knotsBaromVisibWave heightAir tempDewpointWater temp
2015-Jun-11 04:09N 47°16' W 051°24'16 8.4
2015-Jun-11 02:14N 47°21' W 051°46'8 8.0
2015-Jun-11 01:11N 47°24' W 051°58'6 8.0
2015-Jun-11 00:29N 47°26' W 052°06'8 7.9
2015-Jun-10 23:30N 47°28' W 052°16'9 9.0
2015-Jun-10 22:29N 47°31' W 052°29'8 8.0
2015-Jun-10 21:27N 47°34' W 052°41'1 0.4
2015-Jun-10 19:22N 47°34' W 052°42'0 0.0
2015-Jun-10 18:28N 47°34' W 052°42'0 0.0
2015-Jun-10 17:31N 47°34' W 052°42'0 0.0
2015-Jun-10 16:31N 47°34' W 052°42'0 0.0
2015-Jun-10 15:25N 47°34' W 052°42'0 0.0
2015-Jun-10 14:28N 47°34' W 052°42'0 0.0
2015-Jun-10 13:31N 47°34' W 052°42'0 0.0
2015-Jun-10 12:31N 47°34' W 052°42'0 0.0
2015-Jun-10 11:31N 47°34' W 052°42'0 0.0
2015-Jun-10 10:31N 47°34' W 052°42'0 0.0
2015-Jun-10 09:22N 47°34' W 052°42'0 0.0
2015-Jun-10 08:19N 47°34' W 052°42'0 0.0
2015-Jun-10 07:31N 47°34' W 052°42'0 0.0
2015-Jun-10 06:31N 47°34' W 052°42'0 0.0
2015-Jun-10 05:28N 47°34' W 052°42'0 0.0
2015-Jun-10 04:31N 47°34' W 052°42'0 0.0
2015-Jun-10 03:25N 47°34' W 052°42'0 0.0
2015-Jun-10 02:31N 47°34' W 052°42'0 0.0
2015-Jun-10 01:31N 47°34' W 052°42'0 0.0
2015-Jun-10 00:28N 47°34' W 052°42'0 0.0
2015-Jun-09 23:28N 47°34' W 052°42'0 0.0
2015-Jun-09 22:28N 47°34' W 052°42'0 0.0
2015-Jun-09 21:19N 47°34' W 052°42'0 0.0
2015-Jun-09 20:28N 47°34' W 052°42'0 0.0
2015-Jun-09 19:31N 47°34' W 052°42'0 0.0
2015-Jun-09 18:31N 47°34' W 052°42'0 0.0
2015-Jun-09 17:31N 47°34' W 052°42'0 0.0
2015-Jun-09 16:13N 47°34' W 052°42'0 0.0
2015-Jun-09 15:31N 47°34' W 052°42'0 0.0
2015-Jun-09 14:19N 47°34' W 052°42'0 0.0
2015-Jun-09 13:31N 47°34' W 052°42'0 0.0
2015-Jun-09 12:25N 47°34' W 052°42'0 0.0
2015-Jun-09 11:07N 47°34' W 052°42'0 0.0
2015-Jun-09 09:19N 47°34' W 052°42'0 0.0
2015-Jun-09 07:25N 47°34' W 052°42'0 0.0
2015-Jun-09 06:25N 47°34' W 052°42'0 0.0
2015-Jun-09 05:31N 47°34' W 052°42'0 0.0
2015-Jun-09 04:28N 47°34' W 052°42'0 0.0
2015-Jun-09 03:31N 47°34' W 052°42'0 0.0
2015-Jun-09 02:31N 47°34' W 052°42'0 0.0
2015-Jun-09 01:28N 47°34' W 052°42'0 0.0
2015-Jun-08 23:22N 47°34' W 052°42'0 0.0
2015-Jun-08 21:10N 47°34' W 052°42'0 0.0
2015-Jun-08 20:16N 47°34' W 052°42'0 0.0
2015-Jun-08 19:31N 47°34' W 052°42'0 0.0
2015-Jun-08 16:22N 47°34' W 052°42'0 0.0
2015-Jun-08 15:25N 47°34' W 052°42'0 0.0
2015-Jun-08 14:25N 47°34' W 052°42'0 0.0
2015-Jun-08 13:19N 47°34' W 052°42'0 0.0
2015-Jun-08 11:19N 47°34' W 052°42'0 0.0
2015-Jun-08 10:31N 47°34' W 052°42'0 0.0
2015-Jun-08 08:31N 47°34' W 052°42'0 0.0
2015-Jun-08 07:31N 47°34' W 052°42'0 0.0
2015-Jun-08 06:28N 47°34' W 052°42'0 0.0
2015-Jun-08 05:25N 47°34' W 052°42'0 0.0
2015-Jun-08 04:22N 47°34' W 052°42'0 0.0
2015-Jun-08 03:07N 47°34' W 052°42'0 0.0
2015-Jun-08 02:28N 47°34' W 052°42'0 0.0
2015-Jun-08 01:31N 47°34' W 052°42'0 0.0
2015-Jun-08 00:31N 47°34' W 052°42'0 0.0
2015-Jun-07 23:28N 47°34' W 052°42'0 0.0
2015-Jun-07 22:22N 47°34' W 052°42'0 0.0
2015-Jun-07 21:28N 47°34' W 052°42'0 0.0
2015-Jun-07 20:16N 47°34' W 052°42'0 0.0
2015-Jun-07 19:28N 47°34' W 052°42'0 0.0
2015-Jun-07 18:28N 47°34' W 052°42'0 0.0
2015-Jun-07 17:25N 47°34' W 052°42'0 0.0
2015-Jun-07 16:31N 47°34' W 052°42'0 0.0
2015-Jun-07 15:31N 47°34' W 052°42'0 0.0
2015-Jun-07 14:31N 47°34' W 052°42'0 0.0
2015-Jun-07 13:22N 47°34' W 052°42'0 0.0
2015-Jun-07 12:13N 47°34' W 052°42'0 0.0
2015-Jun-07 11:31N 47°34' W 052°42'0 0.0
2015-Jun-07 10:31N 47°34' W 052°42'0 0.0
2015-Jun-07 09:31N 47°34' W 052°42'0 0.0
2015-Jun-07 08:28N 47°34' W 052°42'0 0.0
2015-Jun-07 07:31N 47°34' W 052°42'0 0.0
2015-Jun-07 06:31N 47°34' W 052°42'0 0.0
2015-Jun-07 05:31N 47°34' W 052°42'0 0.0
2015-Jun-07 04:31N 47°34' W 052°42'0 0.0
2015-Jun-07 03:31N 47°34' W 052°42'0 0.0
2015-Jun-07 02:25N 47°34' W 052°42'0 0.0
2015-Jun-07 01:31N 47°34' W 052°42'0 0.0
2015-Jun-07 00:31N 47°34' W 052°42'0 0.0
2015-Jun-06 23:28N 47°34' W 052°42'0 0.0
2015-Jun-06 22:28N 47°34' W 052°42'0 0.0
2015-Jun-06 21:28N 47°34' W 052°42'0 0.0
2015-Jun-06 20:28N 47°34' W 052°42'0 0.0
2015-Jun-06 19:28N 47°34' W 052°42'0 0.0
2015-Jun-06 18:22N 47°34' W 052°42'0 0.0
2015-Jun-06 17:28N 47°34' W 052°42'0 0.0
2015-Jun-06 16:25N 47°34' W 052°42'0 0.0
2015-Jun-06 15:22N 47°34' W 052°42'0 0.0
2015-Jun-06 14:16N 47°34' W 052°42'0 0.0
2015-Jun-06 13:22N 47°34' W 052°42'0 0.0
2015-Jun-06 12:28N 47°34' W 052°42'0 0.0
2015-Jun-06 11:28N 47°34' W 052°42'0 0.0
2015-Jun-06 10:31N 47°34' W 052°42'0 0.0
2015-Jun-06 09:31N 47°34' W 052°42'0 0.0
2015-Jun-06 08:31N 47°34' W 052°42'0 0.0
2015-Jun-06 07:31N 47°34' W 052°42'0 0.0
2015-Jun-06 06:28N 47°34' W 052°42'0 0.0
2015-Jun-06 05:31N 47°34' W 052°42'0 0.0
2015-Jun-06 04:25N 47°34' W 052°42'0 0.0
2015-Jun-06 03:28N 47°34' W 052°42'0 0.0
2015-Jun-06 02:22N 47°34' W 052°42'0 0.0
2015-Jun-06 01:31N 47°34' W 052°42'0 0.0
2015-Jun-06 00:31N 47°34' W 052°42'0 0.0
2015-Jun-05 23:31N 47°34' W 052°42'0 0.0
2015-Jun-05 22:28N 47°34' W 052°42'0 0.0
2015-Jun-05 21:22N 47°34' W 052°42'0 0.0
2015-Jun-05 20:25N 47°34' W 052°42'0 0.0
2015-Jun-05 19:28N 47°34' W 052°42'0 0.0
2015-Jun-05 18:25N 47°34' W 052°42'0 0.0
2015-Jun-05 17:22N 47°34' W 052°42'0 0.0
2015-Jun-05 16:19N 47°34' W 052°42'0 0.0
2015-Jun-05 15:28N 47°34' W 052°42'0 0.0
2015-Jun-05 14:10N 47°34' W 052°42'0 0.0
2015-Jun-05 13:25N 47°34' W 052°42'0 0.0
2015-Jun-05 12:28N 47°34' W 052°42'0 0.0
2015-Jun-05 11:28N 47°34' W 052°42'0 0.0
2015-Jun-05 10:16N 47°34' W 052°42'0 0.0
2015-Jun-05 09:28N 47°34' W 052°42'0 0.0
2015-Jun-05 08:31N 47°34' W 052°42'0 0.0
2015-Jun-05 07:31N 47°34' W 052°42'0 0.0
2015-Jun-05 06:31N 47°34' W 052°42'0 0.0
2015-Jun-05 05:31N 47°34' W 052°42'0 0.0
2015-Jun-05 04:31N 47°34' W 052°42'0 0.0
2015-Jun-05 03:31N 47°34' W 052°42'0 0.0
2015-Jun-05 02:28N 47°34' W 052°42'0 0.0
2015-Jun-05 01:31N 47°34' W 052°42'0 0.0
2015-Jun-05 00:25N 47°34' W 052°42'0 0.0
2015-Jun-04 23:31N 47°34' W 052°42'0 0.0
2015-Jun-04 22:22N 47°34' W 052°42'0 0.0
2015-Jun-04 21:28N 47°34' W 052°42'0 0.0
2015-Jun-04 20:10N 47°34' W 052°42'0 0.0
2015-Jun-04 18:28N 47°34' W 052°42'0 0.0
2015-Jun-04 17:31N 47°34' W 052°42'0 0.0
2015-Jun-04 08:31N 47°34' W 052°42'0 0.0
2015-Jun-04 07:31N 47°34' W 052°42'0 0.0
2015-Jun-04 06:19N 47°34' W 052°42'0 0.0
2015-Jun-04 05:31N 47°34' W 052°42'0 0.0
2015-Jun-04 04:31N 47°34' W 052°42'0 0.0
2015-Jun-04 03:28N 47°34' W 052°42'0 0.0
2015-Jun-04 02:25N 47°34' W 052°42'0 0.0
2015-Jun-04 01:25N 47°34' W 052°42'0 0.0
2015-Jun-04 00:25N 47°34' W 052°42'0 0.0
2015-Jun-03 23:22N 47°34' W 052°42'0 0.0
2015-Jun-03 22:19N 47°34' W 052°42'0 0.0
2015-Jun-03 21:28N 47°34' W 052°42'0 0.0
2015-Jun-03 20:25N 47°34' W 052°42'0 0.0
2015-Jun-03 19:28N 47°34' W 052°42'0 0.0
2015-Jun-03 18:25N 47°34' W 052°42'0 0.0
2015-Jun-03 17:22N 47°34' W 052°42'0 0.0
2015-Jun-03 16:28N 47°34' W 052°42'0 0.0
2015-Jun-03 15:28N 47°34' W 052°42'0 0.0
2015-Jun-03 14:28N 47°34' W 052°42'0 0.0
2015-Jun-03 13:31N 47°34' W 052°42'0 0.0
2015-Jun-03 12:25N 47°34' W 052°42'0 0.0
2015-Jun-03 11:04N 47°34' W 052°42'0 0.0
2015-Jun-03 10:22N 47°34' W 052°42'0 0.0
2015-Jun-03 09:16N 47°34' W 052°42'0 0.0
2015-Jun-03 08:04N 47°34' W 052°42'0 0.0
2015-Jun-03 07:31N 47°34' W 052°42'0 0.0
2015-Jun-03 06:31N 47°34' W 052°42'0 0.0
2015-Jun-03 05:25N 47°34' W 052°42'0 0.0
2015-Jun-03 04:19N 47°34' W 052°42'0 0.0
2015-Jun-03 03:31N 47°34' W 052°42'0 0.0
2015-Jun-03 02:25N 47°34' W 052°42'0 0.0
2015-Jun-03 01:25N 47°34' W 052°42'0 0.0
2015-Jun-03 00:07N 47°34' W 052°42'0 0.0
2015-Jun-02 23:25N 47°34' W 052°42'0 0.0
2015-Jun-02 22:31N 47°34' W 052°42'0 0.0
2015-Jun-02 21:28N 47°34' W 052°42'0 0.0
2015-Jun-02 20:22N 47°34' W 052°42'0 0.0
2015-Jun-02 19:31N 47°34' W 052°42'0 0.0
2015-Jun-02 18:31N 47°34' W 052°42'0 0.0
2015-Jun-02 17:25N 47°34' W 052°42'0 0.0
2015-Jun-02 16:10N 47°34' W 052°42'0 0.0
2015-Jun-02 15:22N 47°34' W 052°42'0 0.0
2015-Jun-02 14:31N 47°34' W 052°42'0 0.0
2015-Jun-02 13:28N 47°34' W 052°42'0 0.0
2015-Jun-02 12:28N 47°34' W 052°42'0 0.0
2015-Jun-02 11:22N 47°34' W 052°42'0 0.0
2015-Jun-02 10:28N 47°34' W 052°42'0 0.0
2015-Jun-02 06:13N 47°34' W 052°42'0 0.0
2015-Jun-02 05:19N 47°34' W 052°42'0 0.0
2015-Jun-02 04:31N 47°34' W 052°42'0 0.0
2015-Jun-02 03:31N 47°34' W 052°42'0 0.0
2015-Jun-02 02:25N 47°34' W 052°42'0 0.0
2015-Jun-02 01:31N 47°34' W 052°42'0 0.0
2015-Jun-02 00:28N 47°34' W 052°42'0 0.0
2015-Jun-01 11:28N 47°34' W 052°42'0 0.0
2015-Jun-01 10:25N 47°34' W 052°42'0 0.0
2015-Jun-01 09:28N 47°34' W 052°42'0 0.0
2015-Jun-01 08:16N 47°34' W 052°42'0 0.0
2015-Jun-01 07:04N 47°34' W 052°42'  
Track history (hours):
 
Tides and Currents Weather Stations Pressure Air Temp Water Temp Dewpoint Dewpoint Depression Visibility Wind Speed Wind Dir Waves Ship Positions

Western Trident

Last reported at 2015-Jun-11 04:09 UTC. Time now 2015-Jul-02 18:17 UTC.
Position N 47°16' W 051°24'.
Warning: this ship's position is 21 days out of date.

Length 95 m; draft 7.5 m.

Type: Other ship. MMSI: 357269000.

Date/timePositionNaut miles runAvg speedWind from/ knotsBaromVisibWave heightAir tempDewpointWater temp
2015-Jun-11 04:09N 47°16' W 051°24'16 8.4
2015-Jun-11 02:14N 47°21' W 051°46'8 8.0
2015-Jun-11 01:11N 47°24' W 051°58'6 8.0
2015-Jun-11 00:29N 47°26' W 052°06'8 7.9
2015-Jun-10 23:30N 47°28' W 052°16'9 9.0
2015-Jun-10 22:29N 47°31' W 052°29'8 8.0
2015-Jun-10 21:27N 47°34' W 052°41'1 0.4
2015-Jun-10 19:22N 47°34' W 052°42'0 0.0
2015-Jun-10 18:28N 47°34' W 052°42'0 0.0
2015-Jun-10 17:31N 47°34' W 052°42'0 0.0
2015-Jun-10 16:31N 47°34' W 052°42'0 0.0
2015-Jun-10 15:25N 47°34' W 052°42'0 0.0
2015-Jun-10 14:28N 47°34' W 052°42'0 0.0
2015-Jun-10 13:31N 47°34' W 052°42'0 0.0
2015-Jun-10 12:31N 47°34' W 052°42'0 0.0
2015-Jun-10 11:31N 47°34' W 052°42'0 0.0
2015-Jun-10 10:31N 47°34' W 052°42'0 0.0
2015-Jun-10 09:22N 47°34' W 052°42'0 0.0
2015-Jun-10 08:19N 47°34' W 052°42'0 0.0
2015-Jun-10 07:31N 47°34' W 052°42'0 0.0
2015-Jun-10 06:31N 47°34' W 052°42'0 0.0
2015-Jun-10 05:28N 47°34' W 052°42'0 0.0
2015-Jun-10 04:31N 47°34' W 052°42'0 0.0
2015-Jun-10 03:25N 47°34' W 052°42'0 0.0
2015-Jun-10 02:31N 47°34' W 052°42'0 0.0
2015-Jun-10 01:31N 47°34' W 052°42'0 0.0
2015-Jun-10 00:28N 47°34' W 052°42'0 0.0
2015-Jun-09 23:28N 47°34' W 052°42'0 0.0
2015-Jun-09 22:28N 47°34' W 052°42'0 0.0
2015-Jun-09 21:19N 47°34' W 052°42'0 0.0
2015-Jun-09 20:28N 47°34' W 052°42'0 0.0
2015-Jun-09 19:31N 47°34' W 052°42'0 0.0
2015-Jun-09 18:31N 47°34' W 052°42'0 0.0
2015-Jun-09 17:31N 47°34' W 052°42'0 0.0
2015-Jun-09 16:13N 47°34' W 052°42'0 0.0
2015-Jun-09 15:31N 47°34' W 052°42'0 0.0
2015-Jun-09 14:19N 47°34' W 052°42'0 0.0
2015-Jun-09 13:31N 47°34' W 052°42'0 0.0
2015-Jun-09 12:25N 47°34' W 052°42'0 0.0
2015-Jun-09 11:07N 47°34' W 052°42'0 0.0
2015-Jun-09 09:19N 47°34' W 052°42'0 0.0
2015-Jun-09 07:25N 47°34' W 052°42'0 0.0
2015-Jun-09 06:25N 47°34' W 052°42'0 0.0
2015-Jun-09 05:31N 47°34' W 052°42'0 0.0
2015-Jun-09 04:28N 47°34' W 052°42'0 0.0
2015-Jun-09 03:31N 47°34' W 052°42'0 0.0
2015-Jun-09 02:31N 47°34' W 052°42'0 0.0
2015-Jun-09 01:28N 47°34' W 052°42'0 0.0
2015-Jun-08 23:22N 47°34' W 052°42'0 0.0
2015-Jun-08 21:10N 47°34' W 052°42'0 0.0
2015-Jun-08 20:16N 47°34' W 052°42'0 0.0
2015-Jun-08 19:31N 47°34' W 052°42'0 0.0
2015-Jun-08 16:22N 47°34' W 052°42'0 0.0
2015-Jun-08 15:25N 47°34' W 052°42'0 0.0
2015-Jun-08 14:25N 47°34' W 052°42'0 0.0
2015-Jun-08 13:19N 47°34' W 052°42'0 0.0
2015-Jun-08 11:19N 47°34' W 052°42'0 0.0
2015-Jun-08 10:31N 47°34' W 052°42'0 0.0
2015-Jun-08 08:31N 47°34' W 052°42'0 0.0
2015-Jun-08 07:31N 47°34' W 052°42'0 0.0
2015-Jun-08 06:28N 47°34' W 052°42'0 0.0
2015-Jun-08 05:25N 47°34' W 052°42'0 0.0
2015-Jun-08 04:22N 47°34' W 052°42'0 0.0
2015-Jun-08 03:07N 47°34' W 052°42'0 0.0
2015-Jun-08 02:28N 47°34' W 052°42'0 0.0
2015-Jun-08 01:31N 47°34' W 052°42'0 0.0
2015-Jun-08 00:31N 47°34' W 052°42'0 0.0
2015-Jun-07 23:28N 47°34' W 052°42'0 0.0
2015-Jun-07 22:22N 47°34' W 052°42'0 0.0
2015-Jun-07 21:28N 47°34' W 052°42'0 0.0
2015-Jun-07 20:16N 47°34' W 052°42'0 0.0
2015-Jun-07 19:28N 47°34' W 052°42'0 0.0
2015-Jun-07 18:28N 47°34' W 052°42'0 0.0
2015-Jun-07 17:25N 47°34' W 052°42'0 0.0
2015-Jun-07 16:31N 47°34' W 052°42'0 0.0
2015-Jun-07 15:31N 47°34' W 052°42'0 0.0
2015-Jun-07 14:31N 47°34' W 052°42'0 0.0
2015-Jun-07 13:22N 47°34' W 052°42'0 0.0
2015-Jun-07 12:13N 47°34' W 052°42'0 0.0
2015-Jun-07 11:31N 47°34' W 052°42'0 0.0
2015-Jun-07 10:31N 47°34' W 052°42'0 0.0
2015-Jun-07 09:31N 47°34' W 052°42'0 0.0
2015-Jun-07 08:28N 47°34' W 052°42'0 0.0
2015-Jun-07 07:31N 47°34' W 052°42'0 0.0
2015-Jun-07 06:31N 47°34' W 052°42'0 0.0
2015-Jun-07 05:31N 47°34' W 052°42'0 0.0
2015-Jun-07 04:31N 47°34' W 052°42'0 0.0
2015-Jun-07 03:31N 47°34' W 052°42'0 0.0
2015-Jun-07 02:25N 47°34' W 052°42'0 0.0
2015-Jun-07 01:31N 47°34' W 052°42'0 0.0
2015-Jun-07 00:31N 47°34' W 052°42'0 0.0
2015-Jun-06 23:28N 47°34' W 052°42'0 0.0
2015-Jun-06 22:28N 47°34' W 052°42'0 0.0
2015-Jun-06 21:28N 47°34' W 052°42'0 0.0
2015-Jun-06 20:28N 47°34' W 052°42'0 0.0
2015-Jun-06 19:28N 47°34' W 052°42'0 0.0
2015-Jun-06 18:22N 47°34' W 052°42'0 0.0
2015-Jun-06 17:28N 47°34' W 052°42'0 0.0
2015-Jun-06 16:25N 47°34' W 052°42'0 0.0
2015-Jun-06 15:22N 47°34' W 052°42'0 0.0
2015-Jun-06 14:16N 47°34' W 052°42'0 0.0
2015-Jun-06 13:22N 47°34' W 052°42'0 0.0
2015-Jun-06 12:28N 47°34' W 052°42'0 0.0
2015-Jun-06 11:28N 47°34' W 052°42'0 0.0
2015-Jun-06 10:31N 47°34' W 052°42'0 0.0
2015-Jun-06 09:31N 47°34' W 052°42'0 0.0
2015-Jun-06 08:31N 47°34' W 052°42'0 0.0
2015-Jun-06 07:31N 47°34' W 052°42'0 0.0
2015-Jun-06 06:28N 47°34' W 052°42'0 0.0
2015-Jun-06 05:31N 47°34' W 052°42'0 0.0
2015-Jun-06 04:25N 47°34' W 052°42'0 0.0
2015-Jun-06 03:28N 47°34' W 052°42'0 0.0
2015-Jun-06 02:22N 47°34' W 052°42'0 0.0
2015-Jun-06 01:31N 47°34' W 052°42'0 0.0
2015-Jun-06 00:31N 47°34' W 052°42'0 0.0
2015-Jun-05 23:31N 47°34' W 052°42'0 0.0
2015-Jun-05 22:28N 47°34' W 052°42'0 0.0
2015-Jun-05 21:22N 47°34' W 052°42'0 0.0
2015-Jun-05 20:25N 47°34' W 052°42'0 0.0
2015-Jun-05 19:28N 47°34' W 052°42'0 0.0
2015-Jun-05 18:25N 47°34' W 052°42'0 0.0
2015-Jun-05 17:22N 47°34' W 052°42'0 0.0
2015-Jun-05 16:19N 47°34' W 052°42'0 0.0
2015-Jun-05 15:28N 47°34' W 052°42'0 0.0
2015-Jun-05 14:10N 47°34' W 052°42'0 0.0
2015-Jun-05 13:25N 47°34' W 052°42'0 0.0
2015-Jun-05 12:28N 47°34' W 052°42'0 0.0
2015-Jun-05 11:28N 47°34' W 052°42'0 0.0
2015-Jun-05 10:16N 47°34' W 052°42'0 0.0
2015-Jun-05 09:28N 47°34' W 052°42'0 0.0
2015-Jun-05 08:31N 47°34' W 052°42'0 0.0
2015-Jun-05 07:31N 47°34' W 052°42'0 0.0
2015-Jun-05 06:31N 47°34' W 052°42'0 0.0
2015-Jun-05 05:31N 47°34' W 052°42'0 0.0
2015-Jun-05 04:31N 47°34' W 052°42'0 0.0
2015-Jun-05 03:31N 47°34' W 052°42'0 0.0
2015-Jun-05 02:28N 47°34' W 052°42'0 0.0
2015-Jun-05 01:31N 47°34' W 052°42'0 0.0
2015-Jun-05 00:25N 47°34' W 052°42'0 0.0
2015-Jun-04 23:31N 47°34' W 052°42'0 0.0
2015-Jun-04 22:22N 47°34' W 052°42'0 0.0
2015-Jun-04 21:28N 47°34' W 052°42'0 0.0
2015-Jun-04 20:10N 47°34' W 052°42'0 0.0
2015-Jun-04 18:28N 47°34' W 052°42'0 0.0
2015-Jun-04 17:31N 47°34' W 052°42'0 0.0
2015-Jun-04 08:31N 47°34' W 052°42'0 0.0
2015-Jun-04 07:31N 47°34' W 052°42'0 0.0
2015-Jun-04 06:19N 47°34' W 052°42'0 0.0
2015-Jun-04 05:31N 47°34' W 052°42'0 0.0
2015-Jun-04 04:31N 47°34' W 052°42'0 0.0
2015-Jun-04 03:28N 47°34' W 052°42'0 0.0
2015-Jun-04 02:25N 47°34' W 052°42'0 0.0
2015-Jun-04 01:25N 47°34' W 052°42'0 0.0
2015-Jun-04 00:25N 47°34' W 052°42'0 0.0
2015-Jun-03 23:22N 47°34' W 052°42'0 0.0
2015-Jun-03 22:19N 47°34' W 052°42'0 0.0
2015-Jun-03 21:28N 47°34' W 052°42'0 0.0
2015-Jun-03 20:25N 47°34' W 052°42'0 0.0
2015-Jun-03 19:28N 47°34' W 052°42'0 0.0
2015-Jun-03 18:25N 47°34' W 052°42'0 0.0
2015-Jun-03 17:22N 47°34' W 052°42'0 0.0
2015-Jun-03 16:28N 47°34' W 052°42'0 0.0
2015-Jun-03 15:28N 47°34' W 052°42'0 0.0
2015-Jun-03 14:28N 47°34' W 052°42'0 0.0
2015-Jun-03 13:31N 47°34' W 052°42'0 0.0
2015-Jun-03 12:25N 47°34' W 052°42'0 0.0
2015-Jun-03 11:04N 47°34' W 052°42'0 0.0
2015-Jun-03 10:22N 47°34' W 052°42'0 0.0
2015-Jun-03 09:16N 47°34' W 052°42'0 0.0
2015-Jun-03 08:04N 47°34' W 052°42'0 0.0
2015-Jun-03 07:31N 47°34' W 052°42'0 0.0
2015-Jun-03 06:31N 47°34' W 052°42'0 0.0
2015-Jun-03 05:25N 47°34' W 052°42'0 0.0
2015-Jun-03 04:19N 47°34' W 052°42'0 0.0
2015-Jun-03 03:31N 47°34' W 052°42'0 0.0
2015-Jun-03 02:25N 47°34' W 052°42'0 0.0
2015-Jun-03 01:25N 47°34' W 052°42'0 0.0
2015-Jun-03 00:07N 47°34' W 052°42'0 0.0
2015-Jun-02 23:25N 47°34' W 052°42'0 0.0
2015-Jun-02 22:31N 47°34' W 052°42'0 0.0
2015-Jun-02 21:28N 47°34' W 052°42'0 0.0
2015-Jun-02 20:22N 47°34' W 052°42'0 0.0
2015-Jun-02 19:31N 47°34' W 052°42'0 0.0
2015-Jun-02 18:31N 47°34' W 052°42'0 0.0
2015-Jun-02 17:25N 47°34' W 052°42'0 0.0
2015-Jun-02 16:10N 47°34' W 052°42'0 0.0
2015-Jun-02 15:22N 47°34' W 052°42'0 0.0
2015-Jun-02 14:31N 47°34' W 052°42'0 0.0
2015-Jun-02 13:28N 47°34' W 052°42'0 0.0
2015-Jun-02 12:28N 47°34' W 052°42'0 0.0
2015-Jun-02 11:22N 47°34' W 052°42'0 0.0
2015-Jun-02 10:28N 47°34' W 052°42'0 0.0
2015-Jun-02 06:13N 47°34' W 052°42'0 0.0
2015-Jun-02 05:19N 47°34' W 052°42'0 0.0
2015-Jun-02 04:31N 47°34' W 052°42'0 0.0
2015-Jun-02 03:31N 47°34' W 052°42'0 0.0
2015-Jun-02 02:25N 47°34' W 052°42'0 0.0
2015-Jun-02 01:31N 47°34' W 052°42'0 0.0
2015-Jun-02 00:28N 47°34' W 052°42'0 0.0
2015-Jun-01 11:28N 47°34' W 052°42'0 0.0
2015-Jun-01 10:25N 47°34' W 052°42'0 0.0
2015-Jun-01 09:28N 47°34' W 052°42'0 0.0
2015-Jun-01 08:16N 47°34' W 052°42'0 0.0
2015-Jun-01 07:04N 47°34' W 052°42'  

Dump ship's entire track history